マニラ/ニノイ・アキノ の空港の天気 - METARとTAF

ニノイ・アキノ国際空港 ( RPLL / MNL ) - フィリピン マニラ
飛行場実況気象(Metar)
観測時間10/23 21:00 PHT (10/23 13:00 UTC)
風向・風速北 3m/s
視程10km以上
天気現象
全天の4割程度の雲 雲底高度 700m
全天の8割程度の雲 雲底高度 3050m
気温27℃
湿度94%
気圧1012hPa
METARRPLL 231300Z VRB05KT 9999 SCT023 BKN100 27/26 Q1012 NOSIG RMK A2988
過去の天気等 Google飛行場航空写真 Wunderground天気予報

過去48時間のMETAR

飛行場予報(TAF)
発表時間: 10/23 19:00 PHT (10/23 11:00 UTC)
予報対象時間: 23日20時 PHT ~ 25日2時 PHT
風向・風速東南東 4m/s
視程10km以上
少しの雲 雲底高度 700m
全天の4割程度の雲 雲底高度 3,050m
23日20時 PHT ~ 24日2時 PHT に一時的に
風向・風速東南東 5m/s
視程9,000m
天気現象弱いしゅう雨
全天の4割程度の雲 雲底高度 700m
全天の8割程度の雲 雲底高度 3,050m
TAF RPLL 231100Z 2312/2418 11007KT 9999 FEW023 SCT100 TX32/2406Z TN26/2321Z
TEMPO 2312/2318 12010KT 9000 -SHRA SCT023 BKN100